Pagrindinis puslapis
METAR-TAF:

METAR-TAF

Oro uostai :

Kuusamo, Suomija

platuma: 65-58N, ilguma: 029-11E, Aukštis: 262 m

Dabartinis oras

Ataskaita buvo paskelbta 26 minutes, ne 03:20 UTC
Vėjas 3 kt iš Šiaurės Rytų, svyruoja nuo Šiaurės/Šiaurės Rytų ir Rytų
Temperatūra 11°C
Drėgmė 94%
Slėgis 1013 hPa
Matomumas 10 km arba daugiau
Apsiniaukę ne aukštis 600 ft

METAR: EFKS 240320Z AUTO 05003KT 030V090 9999 OVC006 11/10 Q1013

Laikas: 06:46 (03:46 UTC)


TAF: trūkstamas

Orai ataskaitas ir orų prognozės (METAR, TAF).

turimą stotys yra geltonos ir raudonos taškus žemėlapyje.

Perkelti pele per norėdami pamatyti stoties vardą.

Tada spustelėkite, norėdami matyti oro stebėjimo ir prognozės.

Norėdami pakeisti žemėlapį: spustelėkite ant žalios mygtukų su juodo kryžiaus žemyn,; žalią mygtuką su brūkšneliu, jei norite nutolinti; arba žalių rodyklių gretimoms žemėlapius.


METAR-TAF: